createdAt,value
2018-07-19T00:02:18.885Z,17.85
2018-07-19T00:04:47.187Z,17.76
2018-07-19T00:07:16.187Z,17.78
2018-07-19T00:09:45.489Z,17.73
2018-07-19T00:12:13.729Z,17.64
2018-07-19T00:14:42.010Z,17.60
2018-07-19T00:17:10.222Z,17.53
2018-07-19T00:19:38.525Z,17.53
2018-07-19T00:22:06.738Z,17.49
2018-07-19T00:24:34.977Z,17.49
2018-07-19T00:27:03.415Z,17.51
2018-07-19T00:29:31.831Z,17.57
2018-07-19T00:32:00.171Z,17.65
2018-07-19T00:34:28.462Z,17.58
2018-07-19T00:36:56.744Z,17.46
2018-07-19T00:39:24.972Z,17.43
2018-07-19T00:41:53.355Z,17.37
2018-07-19T00:44:21.682Z,17.33
2018-07-19T00:46:49.966Z,17.24
2018-07-19T00:49:18.346Z,17.24
2018-07-19T00:51:46.646Z,17.16
2018-07-19T00:54:15.032Z,17.15
2018-07-19T00:56:43.300Z,17.16
2018-07-19T00:59:11.661Z,17.12
2018-07-19T01:01:40.032Z,17.11
2018-07-19T01:04:08.386Z,17.01
2018-07-19T01:06:36.734Z,17.10
2018-07-19T01:09:07.968Z,17.12
2018-07-19T01:11:36.565Z,17.04
2018-07-19T01:14:05.025Z,16.96
2018-07-19T01:16:33.274Z,17.00
2018-07-19T01:19:01.570Z,17.03
2018-07-19T01:21:29.890Z,17.07
2018-07-19T01:23:58.215Z,17.00
2018-07-19T01:26:26.502Z,16.91
2018-07-19T01:28:54.953Z,16.91
2018-07-19T01:31:23.237Z,16.94
2018-07-19T01:33:51.554Z,16.90
2018-07-19T01:36:19.845Z,16.89
2018-07-19T01:38:48.303Z,16.78
2018-07-19T01:41:45.960Z,16.69
2018-07-19T01:44:14.285Z,16.66
2018-07-19T01:46:42.652Z,16.59
2018-07-19T01:49:11.007Z,16.53
2018-07-19T01:51:39.312Z,16.46
2018-07-19T01:54:07.571Z,16.38
2018-07-19T01:56:35.779Z,16.32
2018-07-19T01:59:04.702Z,16.28
2018-07-19T02:01:32.953Z,16.25
2018-07-19T02:04:01.248Z,16.21
2018-07-19T02:06:29.524Z,16.20
2018-07-19T02:08:57.825Z,16.14
2018-07-19T02:11:26.124Z,16.11
2018-07-19T02:13:54.386Z,16.09
2018-07-19T02:16:22.641Z,16.14
2018-07-19T02:18:50.925Z,16.15
2018-07-19T02:21:19.367Z,16.10
2018-07-19T02:23:47.642Z,16.03
2018-07-19T02:26:15.979Z,15.96
2018-07-19T02:31:34.444Z,15.86
2018-07-19T02:34:03.232Z,15.89
2018-07-19T02:36:31.574Z,15.80
2018-07-19T02:39:00.724Z,15.74
2018-07-19T02:41:29.869Z,15.69
2018-07-19T02:43:58.209Z,15.65
2018-07-19T02:46:26.502Z,15.62
2018-07-19T02:48:54.796Z,15.59
2018-07-19T02:51:23.119Z,15.57
2018-07-19T02:53:51.440Z,15.56
2018-07-19T02:56:19.797Z,15.52
2018-07-19T02:58:48.033Z,15.50
2018-07-19T03:01:16.404Z,15.45
2018-07-19T03:03:44.679Z,15.42
2018-07-19T03:06:13.017Z,15.38
2018-07-19T03:08:41.229Z,15.31
2018-07-19T03:11:09.553Z,15.30
2018-07-19T03:13:37.848Z,15.37
2018-07-19T03:16:06.200Z,15.29
2018-07-19T03:18:34.448Z,15.19
2018-07-19T03:21:02.725Z,15.19
2018-07-19T03:23:31.350Z,15.15
2018-07-19T03:25:59.750Z,15.17
2018-07-19T03:28:28.048Z,15.14
2018-07-19T03:30:56.494Z,15.12
2018-07-19T03:33:24.794Z,15.10
2018-07-19T03:35:53.704Z,15.12
2018-07-19T03:38:21.963Z,15.11
2018-07-19T03:41:53.411Z,15.15
2018-07-19T03:44:21.786Z,15.10
2018-07-19T03:46:50.068Z,15.06
2018-07-19T03:49:18.385Z,15.08
2018-07-19T03:51:46.800Z,15.08
2018-07-19T03:54:15.098Z,15.13
2018-07-19T03:56:43.379Z,15.19
2018-07-19T03:59:11.611Z,15.20
2018-07-19T04:01:39.891Z,15.20
2018-07-19T04:04:08.168Z,15.21
2018-07-19T04:06:36.480Z,15.27
2018-07-19T04:09:06.779Z,15.28
2018-07-19T04:11:35.213Z,15.29
2018-07-19T04:14:03.530Z,15.34
2018-07-19T04:16:31.817Z,15.41
2018-07-19T04:19:00.094Z,15.45
2018-07-19T04:21:28.524Z,15.53
2018-07-19T04:23:56.767Z,15.59
2018-07-19T04:26:25.099Z,15.68
2018-07-19T04:28:53.451Z,15.67
2018-07-19T04:31:21.660Z,15.68
2018-07-19T04:33:49.937Z,15.69
2018-07-19T04:36:18.320Z,15.76
2018-07-19T04:38:46.586Z,15.77
2018-07-19T04:41:14.898Z,15.75
2018-07-19T04:43:43.353Z,15.83
2018-07-19T04:46:11.611Z,15.91
2018-07-19T04:48:39.942Z,15.99
2018-07-19T04:51:08.353Z,16.06
2018-07-19T04:53:36.567Z,16.15
2018-07-19T04:56:04.925Z,16.19
2018-07-19T04:58:33.226Z,16.26
2018-07-19T05:01:01.535Z,16.35
2018-07-19T05:03:29.795Z,16.45
2018-07-19T05:05:58.049Z,16.57
2018-07-19T05:08:26.323Z,16.69
2018-07-19T05:10:54.516Z,16.81
2018-07-19T05:13:22.839Z,16.95
2018-07-19T05:15:51.119Z,16.98
2018-07-19T05:18:19.472Z,17.15
2018-07-19T05:20:47.795Z,17.20
2018-07-19T05:23:16.204Z,17.28
2018-07-19T05:25:44.491Z,17.33
2018-07-19T05:28:12.709Z,17.46
2018-07-19T05:30:40.933Z,17.56
2018-07-19T05:33:09.227Z,17.63
2018-07-19T05:35:37.500Z,17.93
2018-07-19T05:38:05.868Z,18.06
2018-07-19T05:40:34.384Z,18.30
2018-07-19T05:43:02.588Z,18.45
2018-07-19T05:45:31.002Z,18.42
2018-07-19T05:47:59.277Z,18.44
2018-07-19T05:50:27.533Z,18.53
2018-07-19T05:52:55.765Z,18.58
2018-07-19T05:55:24.143Z,18.81
2018-07-19T05:57:52.590Z,18.89
2018-07-19T06:00:20.974Z,18.92
2018-07-19T06:02:49.355Z,19.12
2018-07-19T06:05:17.849Z,19.27
2018-07-19T06:07:46.186Z,19.46
2018-07-19T06:10:14.451Z,19.76
2018-07-19T06:12:42.779Z,20.04
2018-07-19T06:15:11.041Z,20.06
2018-07-19T06:17:39.386Z,20.16
2018-07-19T06:20:08.203Z,20.08
2018-07-19T06:22:36.744Z,20.14
2018-07-19T06:25:05.045Z,20.16
2018-07-19T06:27:33.296Z,20.13
2018-07-19T06:30:01.534Z,20.15
2018-07-19T06:32:29.953Z,20.32
2018-07-19T06:34:58.426Z,20.30
2018-07-19T06:37:26.782Z,20.48
2018-07-19T06:39:55.901Z,20.60
2018-07-19T06:42:24.113Z,20.76
2018-07-19T06:44:52.434Z,20.90
2018-07-19T06:47:20.638Z,21.08
2018-07-19T06:49:48.987Z,21.25
2018-07-19T06:52:17.264Z,21.43
2018-07-19T06:54:45.633Z,21.59
2018-07-19T06:57:13.938Z,21.68
2018-07-19T06:59:42.222Z,21.78
2018-07-19T07:02:10.542Z,21.96
2018-07-19T07:04:38.894Z,22.07
2018-07-19T07:07:07.151Z,22.23
2018-07-19T07:09:35.394Z,22.32
2018-07-19T07:12:03.803Z,22.45
2018-07-19T07:14:32.339Z,22.58
2018-07-19T07:17:00.571Z,22.94
2018-07-19T07:19:28.861Z,23.13
2018-07-19T07:21:57.147Z,23.18
2018-07-19T07:24:25.380Z,23.19
2018-07-19T07:26:53.692Z,23.27
2018-07-19T07:29:21.936Z,23.46
2018-07-19T07:31:50.215Z,23.68
2018-07-19T07:34:18.704Z,23.91
2018-07-19T07:36:47.006Z,23.96
2018-07-19T07:39:15.332Z,24.07
2018-07-19T07:41:43.700Z,24.09
2018-07-19T07:44:12.048Z,24.14
2018-07-19T07:46:40.476Z,23.96
2018-07-19T07:49:08.875Z,24.34
2018-07-19T07:51:37.167Z,24.50
2018-07-19T07:54:05.421Z,24.46
2018-07-19T07:56:33.664Z,24.51
2018-07-19T07:59:01.980Z,24.45
2018-07-19T08:01:30.374Z,24.27
2018-07-19T08:03:58.651Z,24.36
2018-07-19T08:06:26.936Z,24.50
2018-07-19T08:08:55.182Z,24.55
2018-07-19T08:11:23.419Z,24.68
2018-07-19T08:13:51.671Z,24.10
2018-07-19T08:16:20.032Z,24.26
2018-07-19T08:18:48.225Z,24.77
2018-07-19T08:21:16.761Z,25.00
2018-07-19T08:23:45.098Z,25.20
2018-07-19T08:26:13.359Z,25.22
2018-07-19T08:28:41.593Z,25.12
2018-07-19T08:31:09.855Z,25.38
2018-07-19T08:33:38.438Z,25.32
2018-07-19T08:36:06.954Z,25.56
2018-07-19T08:38:35.207Z,25.71
2018-07-19T08:41:03.502Z,25.74
2018-07-19T08:43:32.022Z,25.94
2018-07-19T08:46:00.255Z,25.93
2018-07-19T08:48:28.531Z,25.87
2018-07-19T08:50:56.795Z,26.11
2018-07-19T08:53:25.127Z,26.23
2018-07-19T08:55:53.442Z,26.37
2018-07-19T08:58:21.635Z,26.51
2018-07-19T09:00:49.912Z,26.73
2018-07-19T09:03:18.266Z,26.71
2018-07-19T09:05:46.569Z,26.66
2018-07-19T09:08:14.871Z,26.37
2018-07-19T09:10:43.111Z,25.89
2018-07-19T09:13:11.435Z,26.51
2018-07-19T09:15:39.752Z,26.33
2018-07-19T09:18:07.992Z,26.00
2018-07-19T09:20:36.262Z,26.57
2018-07-19T09:23:04.725Z,26.67
2018-07-19T09:25:33.295Z,26.98
2018-07-19T09:28:01.549Z,27.33
2018-07-19T09:30:29.767Z,27.50
2018-07-19T09:32:57.954Z,27.30
2018-07-19T09:35:26.360Z,27.54
2018-07-19T09:37:54.692Z,27.75
2018-07-19T09:40:22.960Z,27.64
2018-07-19T09:42:51.218Z,27.26
2018-07-19T09:45:19.675Z,27.40
2018-07-19T09:47:47.906Z,27.67
2018-07-19T09:50:16.202Z,27.95
2018-07-19T09:52:44.415Z,28.04
2018-07-19T09:55:13.097Z,28.28
2018-07-19T09:57:41.369Z,28.39
2018-07-19T10:00:09.817Z,28.69
2018-07-19T10:02:38.152Z,28.70
2018-07-19T10:05:06.658Z,28.95
2018-07-19T10:07:34.924Z,29.10
2018-07-19T10:10:03.303Z,29.10
2018-07-19T10:12:31.668Z,29.17
2018-07-19T10:14:59.884Z,29.26
2018-07-19T10:17:28.206Z,29.34
2018-07-19T10:19:56.381Z,29.58
2018-07-19T10:22:24.633Z,29.67
2018-07-19T10:24:52.966Z,29.73
2018-07-19T10:27:21.191Z,29.73
2018-07-19T10:29:49.530Z,29.77
2018-07-19T10:32:17.853Z,29.92
2018-07-19T10:34:45.959Z,29.98
2018-07-19T10:37:14.514Z,30.05
2018-07-19T10:39:42.802Z,29.91
2018-07-19T10:42:11.507Z,29.95
2018-07-19T10:44:40.964Z,29.97
2018-07-19T10:47:09.522Z,29.39
2018-07-19T10:49:37.777Z,29.21
2018-07-19T10:52:06.212Z,29.64
2018-07-19T10:54:34.474Z,29.92
2018-07-19T10:57:02.731Z,29.71
2018-07-19T10:59:31.223Z,29.41
2018-07-19T11:01:59.519Z,29.21
2018-07-19T11:04:27.868Z,29.34
2018-07-19T11:06:56.202Z,29.29
2018-07-19T11:09:24.604Z,29.41
2018-07-19T11:11:52.815Z,29.32
2018-07-19T11:14:21.188Z,29.49
2018-07-19T11:16:49.420Z,29.09
2018-07-19T11:19:17.761Z,29.60
2018-07-19T11:21:46.116Z,29.88
2018-07-19T11:24:15.096Z,30.30
2018-07-19T11:26:43.315Z,30.77
2018-07-19T11:29:11.811Z,30.27
2018-07-19T11:31:40.180Z,30.73
2018-07-19T11:34:08.507Z,30.93
2018-07-19T11:36:36.828Z,31.37
2018-07-19T11:39:07.061Z,31.46
2018-07-19T11:41:35.748Z,31.81
2018-07-19T11:44:04.022Z,31.87
2018-07-19T11:46:32.300Z,32.40
2018-07-19T11:49:00.557Z,34.32
2018-07-19T11:51:28.951Z,37.61
2018-07-19T11:53:57.122Z,42.45
2018-07-19T11:56:25.431Z,42.95
2018-07-19T11:58:53.626Z,40.11
2018-07-19T12:01:21.857Z,43.22
2018-07-19T12:03:50.236Z,43.79
2018-07-19T12:06:18.445Z,43.62
2018-07-19T12:08:46.701Z,45.39
2018-07-19T12:11:14.932Z,49.12
2018-07-19T12:13:43.288Z,46.97
2018-07-19T12:16:11.532Z,47.77
2018-07-19T12:18:39.985Z,46.97
2018-07-19T12:21:08.590Z,47.67
2018-07-19T12:23:36.937Z,51.62
2018-07-19T12:26:05.425Z,53.62
2018-07-19T12:28:33.719Z,55.47
2018-07-19T12:31:01.938Z,54.10
2018-07-19T12:33:30.212Z,51.24
2018-07-19T12:35:58.483Z,56.04
2018-07-19T12:38:26.887Z,55.49
2018-07-19T12:40:55.708Z,53.48
2018-07-19T12:43:23.990Z,56.68
2018-07-19T12:45:52.549Z,57.39
2018-07-19T12:48:20.892Z,50.70
2018-07-19T12:50:49.142Z,51.16
2018-07-19T12:53:17.378Z,56.40
2018-07-19T12:55:45.641Z,50.36
2018-07-19T12:58:13.866Z,57.60
2018-07-19T13:00:42.167Z,58.83
2018-07-19T13:03:10.395Z,59.89
2018-07-19T13:05:38.650Z,58.66
2018-07-19T13:08:06.955Z,59.32
2018-07-19T13:10:35.216Z,55.25
2018-07-19T13:13:03.994Z,58.86
2018-07-19T13:15:33.285Z,55.08
2018-07-19T13:18:01.484Z,50.83
2018-07-19T13:20:29.711Z,51.01
2018-07-19T13:22:57.907Z,51.65
2018-07-19T13:25:26.207Z,56.20
2018-07-19T13:27:54.627Z,58.00
2018-07-19T13:30:22.846Z,54.72
2018-07-19T13:32:51.221Z,58.30
2018-07-19T13:35:19.591Z,54.96
2018-07-19T13:37:47.781Z,55.58
2018-07-19T13:40:16.104Z,50.93
2018-07-19T13:42:44.417Z,52.28
2018-07-19T13:45:12.755Z,56.61
2018-07-19T13:47:41.069Z,58.51
2018-07-19T13:50:09.539Z,57.23
2018-07-19T13:52:49.215Z,55.27
2018-07-19T13:55:17.491Z,58.70
2018-07-19T13:57:45.776Z,60.55
2018-07-19T14:00:14.151Z,60.44
2018-07-19T14:02:43.066Z,61.38
2018-07-19T14:05:11.323Z,63.92
2018-07-19T14:07:39.773Z,62.63
2018-07-19T14:10:08.234Z,61.54
2018-07-19T14:12:36.489Z,56.99
2018-07-19T14:15:06.124Z,59.10
2018-07-19T14:17:36.007Z,57.03
2018-07-19T14:20:04.959Z,58.13
2018-07-19T14:22:33.196Z,56.97
2018-07-19T14:25:01.680Z,53.55
2018-07-19T14:27:29.976Z,51.55
2018-07-19T14:29:58.183Z,49.12
2018-07-19T14:32:27.164Z,54.68
2018-07-19T14:34:55.428Z,58.58
2018-07-19T14:37:23.666Z,57.37
2018-07-19T14:39:51.975Z,56.35
2018-07-19T14:42:20.371Z,52.75
2018-07-19T14:44:48.679Z,54.74
2018-07-19T14:47:17.281Z,57.89
2018-07-19T14:49:45.633Z,50.86
2018-07-19T14:52:13.931Z,51.42
2018-07-19T14:54:42.180Z,52.85
2018-07-19T14:57:10.441Z,49.53
2018-07-19T14:59:38.731Z,46.45
2018-07-19T15:02:07.175Z,50.70
2018-07-19T15:04:35.423Z,51.27
2018-07-19T15:07:03.683Z,49.44
2018-07-19T15:09:31.936Z,55.00
2018-07-19T15:12:00.161Z,54.93
2018-07-19T15:14:28.370Z,52.03
2018-07-19T15:16:56.592Z,56.25
2018-07-19T15:19:24.808Z,55.55
2018-07-19T15:21:53.081Z,50.52
2018-07-19T15:24:21.327Z,53.45
2018-07-19T15:26:49.548Z,55.05
2018-07-19T15:29:17.791Z,56.33
2018-07-19T15:31:46.076Z,54.46
2018-07-19T15:34:14.353Z,54.50
2018-07-19T15:36:42.570Z,54.53
2018-07-19T15:39:11.244Z,56.25
2018-07-19T15:41:39.750Z,53.90
2018-07-19T15:44:08.627Z,47.57
2018-07-19T15:46:36.951Z,49.54
2018-07-19T15:49:05.504Z,51.92
2018-07-19T15:51:33.789Z,54.05
2018-07-19T15:54:02.169Z,53.77
2018-07-19T15:56:30.594Z,49.31
2018-07-19T15:58:58.912Z,51.78
2018-07-19T16:01:27.347Z,51.45
2018-07-19T16:03:55.592Z,49.65
2018-07-19T16:06:23.894Z,53.91
2018-07-19T16:08:52.303Z,55.90
2018-07-19T16:11:20.571Z,56.05
2018-07-19T16:13:49.130Z,55.20
2018-07-19T16:16:17.367Z,55.55
2018-07-19T16:18:45.703Z,55.98
2018-07-19T16:21:14.083Z,53.28
2018-07-19T16:23:42.507Z,53.07
2018-07-19T16:26:10.784Z,53.06
2018-07-19T16:28:39.067Z,53.89
2018-07-19T16:31:07.713Z,50.74
2018-07-19T16:33:35.949Z,44.31
2018-07-19T16:36:04.352Z,45.76
2018-07-19T16:38:32.584Z,43.89
2018-07-19T16:41:00.835Z,47.45
2018-07-19T16:43:29.034Z,49.10
2018-07-19T16:45:57.435Z,51.82
2018-07-19T16:48:25.655Z,48.02
2018-07-19T16:50:54.009Z,46.37
2018-07-19T16:53:22.351Z,47.07
2018-07-19T16:55:50.607Z,49.49
2018-07-19T16:58:18.879Z,49.72
2018-07-19T17:00:47.111Z,50.30
2018-07-19T17:03:15.523Z,49.85
2018-07-19T17:05:43.829Z,49.36
2018-07-19T17:08:15.056Z,50.00
2018-07-19T17:10:43.589Z,47.82
2018-07-19T17:13:12.325Z,44.57
2018-07-19T17:15:40.799Z,46.63
2018-07-19T17:18:09.381Z,43.70
2018-07-19T17:20:37.695Z,46.54
2018-07-19T17:23:07.480Z,48.27
2018-07-19T17:25:35.825Z,49.02
2018-07-19T17:28:04.063Z,44.67
2018-07-19T17:30:32.484Z,44.90
2018-07-19T17:33:00.842Z,46.50
2018-07-19T17:35:29.154Z,45.07
2018-07-19T17:37:57.534Z,46.10
2018-07-19T17:40:25.865Z,47.28
2018-07-19T17:42:54.088Z,47.30
2018-07-19T17:45:22.338Z,46.39
2018-07-19T17:47:50.778Z,45.59
2018-07-19T17:50:19.024Z,43.98
2018-07-19T17:52:47.281Z,45.59
2018-07-19T17:55:15.542Z,43.37
2018-07-19T17:57:43.820Z,40.81
2018-07-19T18:00:12.218Z,41.20
2018-07-19T18:02:40.583Z,39.20
2018-07-19T18:05:08.863Z,38.12
2018-07-19T18:07:37.214Z,35.82
2018-07-19T18:10:05.641Z,34.62
2018-07-19T18:12:34.123Z,33.24
2018-07-19T18:15:02.506Z,32.12
2018-07-19T18:17:30.768Z,31.45
2018-07-19T18:19:58.972Z,31.07
2018-07-19T18:22:27.302Z,30.68
2018-07-19T18:24:55.568Z,30.36
2018-07-19T18:27:23.850Z,30.03
2018-07-19T18:29:52.227Z,29.46
2018-07-19T18:32:20.472Z,29.37
2018-07-19T18:34:49.018Z,29.10
2018-07-19T18:37:17.362Z,28.93
2018-07-19T18:42:30.527Z,28.74
2018-07-19T18:44:59.363Z,28.29
2018-07-19T18:47:28.035Z,28.11
2018-07-19T18:49:56.716Z,27.96
2018-07-19T18:52:25.700Z,27.69
2018-07-19T18:54:54.372Z,27.54
2018-07-19T18:57:22.921Z,27.32
2018-07-19T18:59:51.602Z,27.04
2018-07-19T19:02:22.152Z,26.93
2018-07-19T19:04:50.765Z,26.90
2018-07-19T19:07:19.518Z,26.66
2018-07-19T19:09:48.168Z,26.61
2018-07-19T19:12:16.796Z,26.51
2018-07-19T19:14:45.427Z,26.33
2018-07-19T19:17:14.083Z,26.10
2018-07-19T19:19:42.696Z,25.97
2018-07-19T19:22:11.536Z,25.80
2018-07-19T19:24:40.159Z,25.74
2018-07-19T19:27:08.745Z,25.57
2018-07-19T19:29:37.390Z,25.51
2018-07-19T19:32:06.251Z,25.41
2018-07-19T19:34:34.849Z,25.38
2018-07-19T19:37:03.532Z,25.37
2018-07-19T19:39:32.199Z,25.35
2018-07-19T19:42:00.890Z,25.26
2018-07-19T19:44:29.570Z,25.32
2018-07-19T19:46:58.211Z,25.25
2018-07-19T19:49:27.374Z,25.18
2018-07-19T19:51:56.275Z,25.22
2018-07-19T19:54:25.015Z,25.10
2018-07-19T19:56:53.620Z,24.91
2018-07-19T19:59:22.320Z,24.80
2018-07-19T20:01:51.107Z,24.72
2018-07-19T20:04:19.762Z,24.59
2018-07-19T20:06:48.464Z,24.48
2018-07-19T20:09:17.047Z,24.37
2018-07-19T20:11:46.809Z,24.22
2018-07-19T20:14:15.405Z,24.09
2018-07-19T20:16:44.033Z,23.98
2018-07-19T20:19:12.686Z,23.88
2018-07-19T20:21:41.378Z,23.79
2018-07-19T20:24:10.064Z,23.76
2018-07-19T20:26:38.725Z,23.66
2018-07-19T20:29:08.388Z,23.61
2018-07-19T20:31:37.064Z,23.60
2018-07-19T20:34:05.855Z,23.61
2018-07-19T20:36:34.499Z,23.60
2018-07-19T20:39:03.356Z,23.51
2018-07-19T20:41:32.090Z,23.40
2018-07-19T20:44:00.678Z,23.34
2018-07-19T20:46:29.369Z,23.58
2018-07-19T20:48:58.178Z,23.49
2018-07-19T20:51:27.518Z,23.45
2018-07-19T20:53:56.392Z,23.42
2018-07-19T20:56:25.213Z,23.35
2018-07-19T20:58:53.880Z,23.36
2018-07-19T21:01:22.551Z,23.27
2018-07-19T21:03:51.145Z,23.21
2018-07-19T21:06:20.401Z,23.09
2018-07-19T21:08:49.163Z,22.96
2018-07-19T21:11:17.878Z,22.88
2018-07-19T21:13:46.681Z,22.81
2018-07-19T21:16:21.005Z,22.73
2018-07-19T21:18:49.683Z,22.69
2018-07-19T21:21:18.301Z,22.71
2018-07-19T21:23:49.327Z,22.74
2018-07-19T21:26:17.973Z,22.66
2018-07-19T21:28:46.644Z,22.59
2018-07-19T21:31:15.549Z,22.51
2018-07-19T21:33:44.125Z,22.38
2018-07-19T21:36:12.854Z,22.33
2018-07-19T21:38:41.596Z,22.33
2018-07-19T21:41:10.235Z,22.28
2018-07-19T21:43:38.869Z,22.24
2018-07-19T21:46:07.553Z,22.11
2018-07-19T21:48:36.696Z,22.06
2018-07-19T21:51:05.396Z,22.06
2018-07-19T21:53:34.108Z,22.14
2018-07-19T21:56:02.820Z,22.22
2018-07-19T21:58:31.539Z,22.22
2018-07-19T22:01:05.191Z,22.20
2018-07-19T22:03:33.919Z,22.07
2018-07-19T22:06:02.554Z,21.94
2018-07-19T22:08:31.364Z,21.83
2018-07-19T22:11:05.152Z,21.77
2018-07-19T22:13:33.799Z,21.77
2018-07-19T22:16:02.497Z,21.68
2018-07-19T22:18:31.211Z,21.60
2018-07-19T22:20:59.796Z,21.58
2018-07-19T22:23:28.470Z,21.53
2018-07-19T22:25:57.215Z,21.44
2018-07-19T22:28:26.030Z,21.40
2018-07-19T22:30:54.797Z,21.33
2018-07-19T22:33:23.394Z,21.23
2018-07-19T22:35:51.993Z,21.21
2018-07-19T22:38:20.684Z,21.16
2018-07-19T22:40:50.121Z,21.04
2018-07-19T22:43:18.803Z,20.84
2018-07-19T22:45:47.454Z,20.65
2018-07-19T22:48:16.087Z,20.48
2018-07-19T22:50:44.787Z,20.34
2018-07-19T22:53:13.610Z,20.23
2018-07-19T22:55:50.150Z,20.14
2018-07-19T22:58:19.014Z,20.08
2018-07-19T23:00:49.876Z,20.08
2018-07-19T23:03:33.552Z,20.11
2018-07-19T23:06:16.458Z,20.14
2018-07-19T23:08:52.083Z,20.09
2018-07-19T23:11:30.474Z,20.09
2018-07-19T23:14:08.581Z,20.06
2018-07-19T23:16:46.284Z,20.01
2018-07-19T23:19:26.163Z,19.97
2018-07-19T23:22:05.070Z,19.89
2018-07-19T23:24:44.345Z,19.79
2018-07-19T23:27:23.535Z,19.72
2018-07-19T23:30:02.046Z,19.67
2018-07-19T23:32:53.366Z,19.67
2018-07-19T23:38:21.146Z,19.65
2018-07-19T23:41:03.443Z,19.63
2018-07-19T23:43:42.802Z,19.64
2018-07-19T23:46:24.273Z,19.53
2018-07-19T23:49:07.219Z,19.41
2018-07-19T23:51:55.869Z,19.34
2018-07-19T23:54:35.456Z,19.37
2018-07-19T23:57:11.980Z,19.34
2018-07-19T23:59:56.963Z,19.45
